Time;durP1;ratioP1;P1;durP2;ratioP2;P2;SDS_P1;SDS_P2;PMS_P1;PMS_P2;Temp;Humidity;BMP_temperature;BMP_pressure;BME280_temperature;BME280_humidity;BME280_pressure;Samples;Min_cycle;Max_cycle;Signal;HPM_P1;HPM_P2
2023/05/26 00:01:46;;;;;;;40.10;7.30;;;7.00;99.90;;;;;;5076966;28;20076;-67
2023/05/26 00:04:18;;;;;;;39.03;6.57;;;7.00;99.90;;;;;;5077478;28;20064;-67
2023/05/26 00:06:52;;;;;;;43.47;6.78;;;6.90;99.90;;;;;;5071107;28;20259;-67
2023/05/26 00:09:21;;;;;;;34.63;5.70;;;7.00;99.90;;;;;;5037125;28;20058;-68
2023/05/26 00:11:47;;;;;;;36.88;6.20;;;6.90;99.90;;;;;;5040049;28;20037;-67
2023/05/26 00:14:16;;;;;;;45.88;6.32;;;7.00;99.90;;;;;;5074062;28;20131;-66
2023/05/26 00:16:42;;;;;;;42.50;7.07;;;7.00;99.90;;;;;;5072990;28;20041;-67
2023/05/26 00:19:08;;;;;;;41.58;6.50;;;7.00;99.90;;;;;;5057252;28;20060;-67
2023/05/26 00:21:38;;;;;;;47.78;6.28;;;7.00;99.90;;;;;;5072199;28;20037;-68
2023/05/26 00:24:03;;;;;;;34.97;6.55;;;6.90;99.90;;;;;;5042873;28;20037;-67
2023/05/26 00:26:29;;;;;;;30.95;6.38;;;6.90;99.90;;;;;;5073812;28;20049;-67
2023/05/26 00:28:55;;;;;;;49.55;6.93;;;6.90;99.90;;;;;;5039972;28;20144;-66
2023/05/26 00:31:20;;;;;;;43.47;6.43;;;6.80;99.90;;;;;;5040284;28;20055;-66
2023/05/26 00:33:46;;;;;;;44.33;6.20;;;6.80;99.90;;;;;;5039111;28;20040;-67
2023/05/26 00:36:11;;;;;;;46.88;7.22;;;6.80;99.90;;;;;;5040697;28;20034;-67
2023/05/26 00:38:37;;;;;;;40.80;6.55;;;6.80;99.90;;;;;;5040290;28;20041;-68
2023/05/26 00:41:02;;;;;;;42.72;7.18;;;6.80;99.90;;;;;;5041548;28;20066;-67
2023/05/26 00:43:28;;;;;;;47.35;6.72;;;6.70;99.90;;;;;;5035150;28;20174;-67
2023/05/26 00:45:54;;;;;;;32.05;6.68;;;6.70;99.90;;;;;;5036281;28;20906;-67
2023/05/26 00:48:20;;;;;;;42.50;6.72;;;6.70;99.90;;;;;;5042920;28;20055;-67
2023/05/26 00:50:46;;;;;;;43.97;7.63;;;6.70;99.90;;;;;;5069056;28;20139;-67
2023/05/26 00:53:12;;;;;;;47.97;6.80;;;6.60;99.90;;;;;;5037134;28;20140;-67
2023/05/26 00:55:38;;;;;;;44.78;6.68;;;6.60;99.90;;;;;;5041052;28;20505;-67
2023/05/26 00:58:05;;;;;;;50.72;6.80;;;6.60;99.90;;;;;;5040104;28;20041;-67
2023/05/26 01:00:30;;;;;;;46.10;6.18;;;6.60;99.90;;;;;;5032090;28;20041;-67
2023/05/26 01:02:57;;;;;;;50.10;7.28;;;6.60;99.90;;;;;;5043273;28;20495;-67
2023/05/26 01:05:23;;;;;;;33.10;7.00;;;6.60;99.90;;;;;;5042138;28;20029;-67
2023/05/26 01:07:49;;;;;;;45.13;6.65;;;6.50;99.90;;;;;;5076762;28;20041;-67
2023/05/26 01:10:15;;;;;;;39.33;6.70;;;6.50;99.90;;;;;;5038544;28;20102;-67
2023/05/26 01:12:49;;;;;;;36.40;6.85;;;6.50;99.90;;;;;;5077122;28;20309;-67
2023/05/26 01:15:31;;;;;;;46.33;6.93;;;6.50;99.90;;;;;;5041728;28;20044;-67
2023/05/26 01:18:03;;;;;;;48.80;6.57;;;6.40;99.90;;;;;;5067471;28;20420;-68
2023/05/26 01:20:38;;;;;;;44.58;6.97;;;6.40;99.90;;;;;;5041556;28;20124;-67
2023/05/26 01:23:28;;;;;;;46.97;6.38;;;6.40;99.90;;;;;;5040272;28;20831;-67
2023/05/26 01:26:12;;;;;;;39.42;6.28;;;6.30;99.90;;;;;;5038488;28;20039;-67
2023/05/26 01:28:41;;;;;;;44.17;6.88;;;6.30;99.90;;;;;;5035867;28;20045;-67
2023/05/26 01:31:07;;;;;;;40.13;7.10;;;6.30;99.90;;;;;;5038990;28;20041;-67
2023/05/26 01:33:33;;;;;;;37.10;6.50;;;6.30;99.90;;;;;;5037863;28;21442;-67
2023/05/26 01:35:59;;;;;;;38.90;7.13;;;6.30;99.90;;;;;;5033651;28;20045;-67
2023/05/26 01:38:24;;;;;;;42.92;6.78;;;6.20;99.90;;;;;;5036509;28;20056;-67
2023/05/26 01:40:55;;;;;;;38.90;7.65;;;6.20;99.90;;;;;;5038796;28;20041;-67
2023/05/26 01:43:41;;;;;;;44.75;6.97;;;6.20;99.90;;;;;;5071324;28;20041;-67
2023/05/26 01:46:20;;;;;;;48.25;7.00;;;6.20;99.90;;;;;;5040853;28;20037;-67
2023/05/26 01:48:47;;;;;;;43.88;7.13;;;6.20;99.90;;;;;;5071651;28;20060;-67
2023/05/26 01:51:16;;;;;;;43.58;7.15;;;6.20;99.90;;;;;;5070821;28;20135;-67
2023/05/26 01:53:44;;;;;;;48.88;7.82;;;6.10;99.90;;;;;;5040597;28;20045;-67
2023/05/26 01:56:11;;;;;;;31.25;7.03;;;6.10;99.90;;;;;;5074135;28;20043;-67
2023/05/26 01:58:37;;;;;;;42.10;8.43;;;6.10;99.90;;;;;;5035250;28;20055;-68
2023/05/26 02:01:04;;;;;;;43.58;7.75;;;6.00;99.90;;;;;;5040592;28;20408;-67
2023/05/26 02:03:29;;;;;;;43.67;7.68;;;6.10;99.90;;;;;;5069017;28;20073;-67
2023/05/26 02:05:55;;;;;;;42.92;7.47;;;6.10;99.90;;;;;;5040820;28;20101;-67
2023/05/26 02:08:22;;;;;;;41.00;7.40;;;6.00;99.90;;;;;;5039856;28;20463;-67
2023/05/26 02:10:47;;;;;;;42.00;7.47;;;6.00;99.90;;;;;;5039636;28;20068;-67
2023/05/26 02:13:13;;;;;;;39.08;7.68;;;6.00;99.90;;;;;;5033916;28;20076;-67
2023/05/26 02:15:39;;;;;;;44.22;7.57;;;5.90;99.90;;;;;;5041226;28;20053;-67
2023/05/26 02:18:04;;;;;;;36.38;6.82;;;6.00;99.90;;;;;;5065573;28;20871;-67
2023/05/26 02:20:30;;;;;;;39.80;6.78;;;5.90;99.90;;;;;;5038990;28;20044;-68
2023/05/26 02:22:56;;;;;;;45.97;8.10;;;5.90;99.90;;;;;;5038706;28;20033;-68
2023/05/26 02:25:21;;;;;;;39.28;7.00;;;5.90;99.90;;;;;;5068173;28;20037;-67
2023/05/26 02:27:47;;;;;;;23.88;5.28;;;5.90;99.90;;;;;;5040135;28;20030;-67
2023/05/26 02:30:12;;;;;;;23.25;4.65;;;5.80;99.90;;;;;;5040908;28;20032;-68
2023/05/26 02:32:38;;;;;;;33.13;6.30;;;5.80;99.90;;;;;;5043453;28;20040;-68
2023/05/26 02:35:04;;;;;;;24.13;4.53;;;5.80;99.90;;;;;;5073220;28;20223;-68
2023/05/26 02:37:30;;;;;;;35.45;6.60;;;5.80;99.90;;;;;;5045353;28;20491;-68
2023/05/26 02:39:56;;;;;;;38.22;7.53;;;5.70;99.90;;;;;;5044067;28;20040;-68
2023/05/26 02:42:22;;;;;;;39.42;8.18;;;5.70;99.90;;;;;;5041826;28;20095;-68
2023/05/26 02:44:48;;;;;;;40.70;6.80;;;5.80;99.90;;;;;;5045095;28;20041;-68
2023/05/26 02:47:13;;;;;;;48.55;7.45;;;5.80;99.90;;;;;;5044592;28;20073;-68
2023/05/26 02:49:39;;;;;;;37.33;7.75;;;5.90;99.90;;;;;;5035608;28;20432;-68
2023/05/26 02:52:05;;;;;;;50.78;7.72;;;5.90;99.90;;;;;;5045352;28;20048;-68
2023/05/26 02:54:30;;;;;;;41.88;7.18;;;5.80;99.90;;;;;;5072015;28;20037;-68
2023/05/26 02:56:56;;;;;;;40.00;8.02;;;5.80;99.90;;;;;;5043650;28;20048;-68
2023/05/26 02:59:22;;;;;;;29.92;5.15;;;5.90;99.90;;;;;;5044341;28;20037;-68
2023/05/26 03:01:47;;;;;;;37.65;7.82;;;5.80;99.90;;;;;;5077130;28;20719;-68
2023/05/26 03:04:13;;;;;;;20.58;4.05;;;5.80;99.90;;;;;;5043775;28;20493;-68
2023/05/26 03:06:38;;;;;;;45.53;7.30;;;5.70;99.90;;;;;;5044954;28;20047;-68
2023/05/26 03:09:04;;;;;;;38.85;6.63;;;5.70;99.90;;;;;;5037846;28;20064;-68
2023/05/26 03:11:30;;;;;;;37.65;6.60;;;5.70;99.90;;;;;;5044918;28;20122;-68
2023/05/26 03:13:55;;;;;;;36.97;6.55;;;5.70;99.90;;;;;;5074471;28;20052;-68
2023/05/26 03:16:23;;;;;;;45.88;7.28;;;5.70;99.90;;;;;;5044846;28;20045;-68
2023/05/26 03:18:49;;;;;;;38.40;7.45;;;5.70;99.90;;;;;;5038177;28;20045;-68
2023/05/26 03:21:16;;;;;;;27.67;5.22;;;5.70;99.90;;;;;;5045966;28;20455;-68
2023/05/26 03:23:42;;;;;;;29.67;6.80;;;5.70;99.90;;;;;;5042948;28;20051;-68
2023/05/26 03:26:08;;;;;;;33.85;5.80;;;5.70;99.90;;;;;;5044102;28;20336;-68
2023/05/26 03:28:33;;;;;;;23.23;5.63;;;5.70;99.90;;;;;;5071323;28;20433;-68
2023/05/26 03:30:59;;;;;;;27.25;5.78;;;5.60;99.90;;;;;;5036845;28;20493;-68
2023/05/26 03:33:25;;;;;;;38.05;6.43;;;5.60;99.90;;;;;;5068755;28;20052;-67
2023/05/26 03:35:51;;;;;;;40.25;7.10;;;5.60;99.90;;;;;;5037468;28;20040;-68
2023/05/26 03:38:17;;;;;;;35.70;6.72;;;5.50;99.90;;;;;;5032797;28;21014;-68
2023/05/26 03:40:43;;;;;;;34.60;6.05;;;5.50;99.90;;;;;;5037292;28;20060;-68
2023/05/26 03:43:09;;;;;;;32.60;6.53;;;5.50;99.90;;;;;;5039641;28;20041;-68
2023/05/26 03:45:34;;;;;;;23.35;6.07;;;5.50;99.90;;;;;;5075919;28;20110;-67
2023/05/26 03:48:00;;;;;;;33.28;6.90;;;5.50;99.90;;;;;;5035690;28;20052;-67
2023/05/26 03:50:25;;;;;;;32.83;6.07;;;5.50;99.90;;;;;;5072948;28;20037;-67
2023/05/26 03:52:51;;;;;;;34.35;6.72;;;5.50;99.90;;;;;;5037489;28;20098;-67
2023/05/26 03:55:17;;;;;;;29.83;5.95;;;5.50;99.90;;;;;;5038307;28;20079;-66
2023/05/26 03:57:43;;;;;;;39.03;6.70;;;5.50;99.90;;;;;;5037117;28;20067;-68
2023/05/26 04:00:10;;;;;;;37.90;6.25;;;5.50;99.90;;;;;;5036544;28;20034;-67
2023/05/26 04:02:36;;;;;;;39.75;7.00;;;5.50;99.90;;;;;;5036557;28;20045;-68
2023/05/26 04:05:02;;;;;;;39.70;6.68;;;5.60;99.90;;;;;;5035950;28;20540;-67
2023/05/26 04:07:28;;;;;;;39.03;6.65;;;5.70;99.90;;;;;;5045237;28;20040;-68
2023/05/26 04:09:54;;;;;;;34.33;7.22;;;5.70;99.90;;;;;;5039868;28;20044;-68
2023/05/26 04:12:19;;;;;;;37.30;6.80;;;5.80;99.90;;;;;;5032915;28;20034;-68
2023/05/26 04:14:45;;;;;;;32.78;6.55;;;5.80;99.90;;;;;;5069162;28;20044;-67
2023/05/26 04:17:11;;;;;;;28.58;6.43;;;5.70;99.90;;;;;;5069223;28;20141;-67
2023/05/26 04:19:36;;;;;;;36.15;7.38;;;5.80;99.90;;;;;;5038738;28;20486;-67
2023/05/26 04:22:02;;;;;;;37.92;7.30;;;5.80;99.90;;;;;;5033389;28;20037;-68
2023/05/26 04:24:27;;;;;;;29.67;6.65;;;5.80;99.90;;;;;;5074580;28;20044;-67
2023/05/26 04:26:54;;;;;;;30.15;6.47;;;5.80;99.90;;;;;;5036921;28;20064;-67
2023/05/26 04:29:20;;;;;;;31.45;6.22;;;5.80;99.90;;;;;;5037768;28;21134;-68
2023/05/26 04:31:46;;;;;;;21.88;5.20;;;5.80;99.90;;;;;;5067515;28;20400;-68
2023/05/26 04:34:11;;;;;;;28.73;6.25;;;5.90;99.90;;;;;;5032134;28;20740;-67
2023/05/26 04:36:41;;;;;;;64.50;4.63;;;5.90;99.90;;;;;;5035982;28;20053;-68
2023/05/26 04:39:07;;;;;;;33.63;5.82;;;5.90;99.90;;;;;;5038306;28;20116;-67
2023/05/26 04:41:32;;;;;;;27.83;5.20;;;5.90;99.90;;;;;;5066059;28;20578;-67
2023/05/26 04:43:59;;;;;;;33.58;6.90;;;5.90;99.90;;;;;;5057026;28;20037;-68
2023/05/26 04:46:25;;;;;;;41.25;6.30;;;6.00;99.90;;;;;;5037794;28;20040;-67
2023/05/26 04:48:52;;;;;;;37.35;6.95;;;6.10;99.90;;;;;;5030836;28;20045;-66
2023/05/26 04:51:18;;;;;;;37.03;6.47;;;6.20;99.90;;;;;;5069292;28;20072;-66
2023/05/26 04:53:44;;;;;;;35.08;6.38;;;6.30;99.90;;;;;;5037182;28;20072;-66
2023/05/26 04:56:10;;;;;;;34.55;6.95;;;6.40;99.90;;;;;;5037824;28;20542;-66
2023/05/26 04:58:37;;;;;;;45.17;7.78;;;6.50;99.90;;;;;;5037019;28;20091;-66
2023/05/26 05:01:03;;;;;;;44.13;7.28;;;6.50;99.90;;;;;;5035140;28;20047;-67
2023/05/26 05:03:29;;;;;;;32.35;6.00;;;6.60;99.90;;;;;;5037717;28;21350;-67
2023/05/26 05:05:55;;;;;;;35.55;6.18;;;6.70;99.90;;;;;;5037828;28;20412;-67
2023/05/26 05:08:20;;;;;;;35.38;6.45;;;6.80;99.90;;;;;;5034703;28;20068;-67
2023/05/26 05:10:46;;;;;;;48.95;6.90;;;6.90;99.90;;;;;;5016199;28;20483;-67
2023/05/26 05:13:11;;;;;;;40.92;6.50;;;7.00;99.90;;;;;;5067652;28;20139;-67
2023/05/26 05:15:37;;;;;;;41.33;7.28;;;7.10;99.90;;;;;;5068725;28;20049;-67
2023/05/26 05:18:02;;;;;;;36.60;7.25;;;7.20;99.90;;;;;;5031332;28;20044;-67
2023/05/26 05:20:28;;;;;;;41.25;6.97;;;7.40;99.90;;;;;;5055247;28;20043;-67
2023/05/26 05:22:54;;;;;;;35.13;6.07;;;7.50;99.90;;;;;;5036554;28;20047;-66
2023/05/26 05:25:20;;;;;;;42.47;6.82;;;7.60;99.90;;;;;;5037292;28;20491;-67
2023/05/26 05:27:46;;;;;;;40.35;7.13;;;7.70;99.90;;;;;;5068606;28;20067;-67
2023/05/26 05:30:12;;;;;;;40.50;7.00;;;7.80;99.90;;;;;;5074624;28;20033;-67
2023/05/26 05:32:38;;;;;;;40.35;7.28;;;7.90;99.90;;;;;;5045304;28;20044;-67
2023/05/26 05:35:04;;;;;;;39.72;6.28;;;8.00;99.90;;;;;;5040917;28;20099;-66
2023/05/26 05:37:30;;;;;;;43.95;7.38;;;8.10;99.90;;;;;;5036378;28;20044;-67
2023/05/26 05:39:56;;;;;;;36.90;7.05;;;8.30;99.90;;;;;;5042835;28;20042;-67
2023/05/26 05:42:24;;;;;;;34.15;6.97;;;8.40;99.90;;;;;;5035734;28;20112;-66
2023/05/26 05:44:50;;;;;;;46.78;7.50;;;8.50;99.90;;;;;;5081858;28;20110;-67
2023/05/26 05:47:16;;;;;;;39.60;7.32;;;8.70;99.90;;;;;;5047346;28;20076;-67
2023/05/26 05:49:41;;;;;;;37.88;7.13;;;8.80;99.90;;;;;;5033577;28;20077;-67
2023/05/26 05:52:07;;;;;;;35.72;7.30;;;9.00;99.90;;;;;;5030430;28;20038;-67
2023/05/26 05:54:33;;;;;;;42.45;7.25;;;9.10;99.90;;;;;;5040901;28;20099;-67
2023/05/26 05:56:59;;;;;;;34.60;6.43;;;9.30;99.90;;;;;;5048321;28;20069;-66
2023/05/26 05:59:24;;;;;;;40.35;7.13;;;9.40;99.90;;;;;;5045394;28;20075;-67
2023/05/26 06:01:50;;;;;;;38.70;6.78;;;9.60;99.90;;;;;;5047044;28;20045;-67
2023/05/26 06:04:15;;;;;;;37.05;7.20;;;9.70;99.90;;;;;;5043330;28;20044;-66
2023/05/26 06:06:41;;;;;;;41.42;6.75;;;9.90;99.90;;;;;;5028746;28;20050;-67
2023/05/26 06:09:07;;;;;;;33.08;6.82;;;10.00;99.90;;;;;;5028594;28;20041;-67
2023/05/26 06:11:33;;;;;;;37.05;7.53;;;10.10;99.90;;;;;;5026360;28;20451;-66
2023/05/26 06:13:59;;;;;;;43.17;6.93;;;10.30;99.90;;;;;;5031925;28;20068;-67
2023/05/26 06:16:25;;;;;;;41.47;7.28;;;10.40;99.90;;;;;;5040588;28;20492;-67
2023/05/26 06:18:51;;;;;;;43.38;7.18;;;10.50;99.90;;;;;;5058403;28;20037;-66
2023/05/26 06:21:16;;;;;;;43.92;7.25;;;10.70;99.90;;;;;;5043898;28;20393;-67
2023/05/26 06:23:42;;;;;;;41.03;7.40;;;10.80;99.90;;;;;;5079618;28;20496;-65
2023/05/26 06:26:07;;;;;;;38.80;7.38;;;10.90;99.90;;;;;;5035288;28;20446;-66
2023/05/26 06:28:33;;;;;;;40.03;6.68;;;11.10;99.90;;;;;;5040226;28;20528;-66
2023/05/26 06:30:58;;;;;;;31.98;6.22;;;11.20;99.90;;;;;;5042486;28;20717;-66
2023/05/26 06:33:24;;;;;;;40.75;7.03;;;11.30;99.90;;;;;;5030817;28;20075;-67
2023/05/26 06:35:49;;;;;;;39.55;6.57;;;11.30;99.90;;;;;;5079445;28;20048;-66
2023/05/26 06:38:15;;;;;;;38.58;6.65;;;11.40;99.90;;;;;;5045799;28;20680;-67
2023/05/26 06:40:40;;;;;;;36.90;6.65;;;11.50;99.90;;;;;;5078925;28;20044;-65
2023/05/26 06:43:06;;;;;;;37.00;7.07;;;11.60;99.90;;;;;;5029324;28;20048;-66
2023/05/26 06:45:32;;;;;;;40.78;6.45;;;11.70;99.90;;;;;;5081548;28;20033;-66
2023/05/26 06:47:57;;;;;;;40.58;6.00;;;11.70;99.90;;;;;;5047415;28;20257;-66
2023/05/26 06:50:23;;;;;;;41.05;6.95;;;11.80;99.90;;;;;;5045196;28;20056;-67
2023/05/26 06:52:49;;;;;;;50.00;7.20;;;11.80;99.90;;;;;;5046295;28;20271;-66
2023/05/26 06:55:16;;;;;;;38.28;7.18;;;11.80;99.90;;;;;;5042981;28;20053;-67
2023/05/26 06:57:42;;;;;;;40.08;5.97;;;11.90;99.90;;;;;;5078412;28;20085;-65
2023/05/26 07:00:08;;;;;;;41.55;6.40;;;12.00;99.90;;;;;;5042314;28;20073;-66
2023/05/26 07:02:33;;;;;;;36.33;6.25;;;12.00;99.90;;;;;;5032821;28;20034;-66
2023/05/26 07:04:59;;;;;;;45.25;7.57;;;12.00;99.90;;;;;;5043705;28;20043;-66
2023/05/26 07:07:25;;;;;;;37.03;6.82;;;12.10;99.90;;;;;;5039633;28;20102;-65
2023/05/26 07:09:50;;;;;;;33.53;6.18;;;12.00;99.90;;;;;;5039624;28;20045;-63
2023/05/26 07:12:16;;;;;;;39.95;7.30;;;11.90;99.90;;;;;;5027773;28;20041;-65
2023/05/26 07:14:41;;;;;;;36.53;6.13;;;11.90;99.90;;;;;;5040376;28;20052;-65
2023/05/26 07:17:07;;;;;;;39.28;7.07;;;12.00;99.90;;;;;;5047003;28;20040;-64
2023/05/26 07:19:32;;;;;;;37.47;6.25;;;12.20;99.90;;;;;;5047737;28;20043;-65
2023/05/26 07:21:59;;;;;;;29.52;5.93;;;12.30;99.90;;;;;;5040135;28;20044;-65
2023/05/26 07:24:25;;;;;;;39.88;6.82;;;12.40;99.90;;;;;;5046089;28;20680;-66
2023/05/26 07:26:50;;;;;;;35.22;7.13;;;12.60;99.90;;;;;;5047628;28;20118;-64
2023/05/26 07:29:16;;;;;;;30.23;6.15;;;12.70;99.90;;;;;;5044617;28;20049;-64
2023/05/26 07:31:41;;;;;;;37.63;7.63;;;12.70;99.90;;;;;;5031840;28;20507;-65
2023/05/26 07:34:07;;;;;;;35.92;6.72;;;12.70;99.90;;;;;;5046260;28;20507;-64
2023/05/26 07:36:34;;;;;;;37.10;6.82;;;12.60;99.90;;;;;;5047199;28;20191;-67
2023/05/26 07:39:00;;;;;;;38.58;7.28;;;12.50;99.90;;;;;;5046662;28;20059;-65
2023/05/26 07:41:25;;;;;;;36.85;7.35;;;12.50;99.90;;;;;;5080413;28;20041;-65
2023/05/26 07:43:51;;;;;;;37.25;7.47;;;12.60;99.90;;;;;;5041901;28;20045;-65
2023/05/26 07:46:16;;;;;;;33.70;8.02;;;12.60;99.90;;;;;;5041401;28;20045;-65
2023/05/26 07:48:42;;;;;;;42.42;7.05;;;12.70;99.90;;;;;;5040545;28;20041;-63
2023/05/26 07:51:07;;;;;;;33.80;7.38;;;12.90;99.90;;;;;;5069449;28;20073;-67
2023/05/26 07:53:34;;;;;;;37.17;7.20;;;13.10;99.90;;;;;;5040383;28;20045;-64
2023/05/26 07:56:00;;;;;;;29.65;6.75;;;13.30;99.90;;;;;;5035819;28;20053;-64
2023/05/26 07:58:25;;;;;;;34.80;6.95;;;13.40;99.90;;;;;;5041798;28;20539;-65
2023/05/26 08:00:51;;;;;;;32.95;6.70;;;13.50;99.90;;;;;;5070439;28;20037;-66
2023/05/26 08:03:17;;;;;;;35.70;6.70;;;13.60;99.90;;;;;;5035803;28;20548;-65
2023/05/26 08:05:43;;;;;;;31.38;6.85;;;13.70;99.90;;;;;;5070528;28;20551;-64
2023/05/26 08:08:09;;;;;;;36.60;7.28;;;13.80;99.90;;;;;;5031625;28;20068;-64
2023/05/26 08:10:36;;;;;;;32.60;7.00;;;14.00;99.90;;;;;;5078351;28;20042;-64
2023/05/26 08:13:01;;;;;;;33.50;6.97;;;14.00;99.90;;;;;;5074631;28;20037;-67
2023/05/26 08:15:27;;;;;;;38.78;7.25;;;14.00;99.90;;;;;;5039550;28;20034;-66
2023/05/26 08:17:53;;;;;;;33.20;7.32;;;13.90;99.90;;;;;;5064650;28;20033;-65
2023/05/26 08:20:18;;;;;;;36.08;7.90;;;13.90;99.90;;;;;;5048873;28;20025;-66
2023/05/26 08:22:44;;;;;;;25.08;6.75;;;13.90;99.90;;;;;;5048901;28;20331;-65
2023/05/26 08:25:10;;;;;;;33.38;7.45;;;14.00;99.90;;;;;;5047747;28;20059;-65
2023/05/26 08:27:35;;;;;;;34.15;6.80;;;14.20;99.90;;;;;;5048538;28;20334;-65
2023/05/26 08:30:01;;;;;;;32.88;6.90;;;14.30;99.90;;;;;;5066619;28;20087;-66
2023/05/26 08:32:27;;;;;;;28.30;5.95;;;14.40;99.90;;;;;;5031015;28;20496;-66
2023/05/26 08:34:52;;;;;;;31.15;5.40;;;14.60;99.90;;;;;;5072986;28;20045;-64
2023/05/26 08:37:18;;;;;;;22.88;5.55;;;14.60;99.90;;;;;;5055155;28;20088;-65
2023/05/26 08:39:44;;;;;;;21.80;5.25;;;14.70;99.90;;;;;;5038885;28;20041;-65
2023/05/26 08:42:16;;;;;;;23.38;5.20;;;14.80;99.90;;;;;;5048617;28;20119;-66
2023/05/26 08:44:44;;;;;;;23.38;4.47;;;14.90;99.90;;;;;;5049162;28;20045;-65
2023/05/26 08:47:11;;;;;;;22.98;4.53;;;15.00;99.90;;;;;;5049228;28;20492;-67
2023/05/26 08:49:49;;;;;;;27.40;5.15;;;15.10;99.90;;;;;;5040018;28;20049;-64
2023/05/26 08:52:16;;;;;;;25.02;4.25;;;15.10;99.90;;;;;;5065755;28;20053;-65
2023/05/26 08:54:44;;;;;;;29.38;5.00;;;15.10;99.90;;;;;;5038669;28;20053;-64
2023/05/26 08:57:12;;;;;;;25.55;4.65;;;15.10;99.90;;;;;;5036198;28;20049;-64
2023/05/26 08:59:39;;;;;;;16.77;3.75;;;15.10;99.90;;;;;;5077965;28;20291;-63
2023/05/26 09:02:05;;;;;;;25.10;4.60;;;15.30;99.90;;;;;;5034917;28;20060;-66
2023/05/26 09:04:31;;;;;;;22.52;4.47;;;15.30;99.90;;;;;;5038553;28;20037;-66
2023/05/26 09:06:57;;;;;;;20.35;4.50;;;15.40;99.90;;;;;;5046409;28;20033;-63
2023/05/26 09:09:23;;;;;;;22.98;4.28;;;15.50;99.90;;;;;;5077002;28;20652;-64
2023/05/26 09:11:49;;;;;;;23.35;4.47;;;15.30;99.90;;;;;;5043915;28;20566;-64
2023/05/26 09:14:21;;;;;;;27.50;4.35;;;15.40;99.90;;;;;;5040582;28;20049;-66
2023/05/26 09:16:46;;;;;;;21.52;4.30;;;15.40;99.90;;;;;;5047369;28;20045;-65
2023/05/26 09:19:17;;;;;;;22.55;4.53;;;15.50;99.90;;;;;;5046484;28;20786;-65
2023/05/26 09:21:51;;;;;;;20.48;4.68;;;15.50;99.90;;;;;;5048676;28;20049;-63
2023/05/26 09:24:23;;;;;;;23.85;4.40;;;15.60;99.90;;;;;;5040717;28;20033;-64
2023/05/26 09:26:50;;;;;;;20.85;4.55;;;15.60;99.90;;;;;;5045290;28;20040;-66
2023/05/26 09:29:15;;;;;;;20.23;3.97;;;15.60;99.90;;;;;;5046960;28;20051;-63
2023/05/26 09:31:46;;;;;;;19.55;4.55;;;15.70;99.90;;;;;;5043947;28;20045;-64
2023/05/26 09:34:13;;;;;;;21.88;4.47;;;15.80;99.90;;;;;;5046926;28;20037;-65
2023/05/26 09:36:40;;;;;;;22.80;4.47;;;15.80;99.90;;;;;;5060463;28;20060;-65
2023/05/26 09:39:10;;;;;;;23.08;4.85;;;15.90;99.90;;;;;;5043679;28;20073;-65
2023/05/26 09:41:44;;;;;;;17.73;4.60;;;16.00;99.90;;;;;;5074587;28;20053;-64
2023/05/26 09:44:17;;;;;;;24.35;3.92;;;16.00;99.90;;;;;;5039642;28;20516;-64
2023/05/26 09:46:44;;;;;;;22.20;4.13;;;16.20;99.90;;;;;;5046947;28;20377;-67
2023/05/26 09:49:16;;;;;;;24.80;4.75;;;16.20;99.90;;;;;;5038302;28;20048;-64
2023/05/26 09:51:48;;;;;;;17.42;4.32;;;16.20;99.90;;;;;;5069815;28;20045;-64
2023/05/26 09:54:14;;;;;;;19.02;4.18;;;16.30;99.90;;;;;;5039697;28;20068;-64
2023/05/26 09:56:50;;;;;;;18.15;4.50;;;16.20;99.90;;;;;;5039634;28;20645;-64
2023/05/26 09:59:17;;;;;;;22.67;4.63;;;16.30;99.90;;;;;;5045431;28;20771;-65
2023/05/26 10:01:43;;;;;;;17.98;4.22;;;16.30;99.90;;;;;;5072960;28;20063;-63
2023/05/26 10:04:10;;;;;;;20.08;3.97;;;16.40;99.90;;;;;;5037916;28;20060;-64
2023/05/26 10:06:39;;;;;;;25.73;4.93;;;16.40;99.90;;;;;;5037959;28;20045;-64
2023/05/26 10:09:06;;;;;;;24.92;4.60;;;16.40;99.90;;;;;;5042494;28;20522;-65
2023/05/26 10:11:36;;;;;;;21.88;4.25;;;16.40;99.90;;;;;;5070917;28;20439;-64
2023/05/26 10:14:02;;;;;;;26.52;5.18;;;16.40;99.90;;;;;;5038839;28;20052;-65
2023/05/26 10:16:29;;;;;;;24.52;4.57;;;16.40;99.90;;;;;;5040136;28;20040;-65
2023/05/26 10:18:54;;;;;;;23.77;4.68;;;16.40;99.90;;;;;;5038383;28;20572;-64
2023/05/26 10:21:26;;;;;;;20.75;4.68;;;16.50;99.90;;;;;;5043489;28;20085;-65
2023/05/26 10:24:08;;;;;;;19.67;4.07;;;16.50;99.90;;;;;;5042223;28;20515;-65
2023/05/26 10:26:53;;;;;;;22.70;4.27;;;16.60;99.90;;;;;;5072528;28;20418;-66
2023/05/26 10:29:23;;;;;;;25.73;4.55;;;16.70;99.90;;;;;;5043013;28;20376;-65
2023/05/26 10:31:49;;;;;;;19.15;4.03;;;16.70;99.90;;;;;;5043390;28;20037;-66
2023/05/26 10:34:37;;;;;;;21.92;4.20;;;16.70;99.90;;;;;;5040128;28;20060;-67
2023/05/26 10:37:12;;;;;;;21.08;4.72;;;16.60;99.90;;;;;;5037715;28;20107;-65
2023/05/26 10:39:40;;;;;;;24.98;5.07;;;16.60;99.90;;;;;;5040279;28;20048;-64
2023/05/26 10:42:19;;;;;;;18.67;4.30;;;16.60;99.90;;;;;;5036301;28;20042;-64
2023/05/26 10:44:48;;;;;;;22.80;4.18;;;16.70;99.90;;;;;;5041811;28;20551;-64
2023/05/26 10:47:16;;;;;;;19.25;4.50;;;16.70;99.90;;;;;;5037304;28;20036;-65
2023/05/26 10:49:51;;;;;;;21.73;4.10;;;16.70;99.90;;;;;;5038434;28;20561;-66
2023/05/26 10:52:17;;;;;;;19.45;4.43;;;16.80;99.90;;;;;;5045599;28;20041;-65
2023/05/26 10:54:42;;;;;;;25.08;4.68;;;16.80;99.90;;;;;;5083291;28;20102;-63
2023/05/26 10:57:31;;;;;;;24.15;5.03;;;16.70;99.90;;;;;;5048120;28;20355;-66
2023/05/26 10:59:58;;;;;;;21.02;4.20;;;16.80;99.90;;;;;;5042567;28;20033;-66
2023/05/26 11:02:24;;;;;;;19.65;4.68;;;16.90;99.90;;;;;;5075405;28;20104;-66
2023/05/26 11:04:50;;;;;;;19.08;4.57;;;16.90;99.90;;;;;;5039621;28;20043;-63
2023/05/26 11:07:20;;;;;;;21.45;4.50;;;17.00;99.90;;;;;;5042332;28;20111;-65
2023/05/26 11:10:06;;;;;;;23.05;4.20;;;17.00;99.90;;;;;;5041361;28;20041;-65
2023/05/26 11:12:35;;;;;;;19.63;4.55;;;17.00;99.90;;;;;;5023916;28;20395;-66
2023/05/26 11:15:23;;;;;;;17.80;4.47;;;16.90;99.90;;;;;;5035804;28;20084;-64
2023/05/26 11:18:09;;;;;;;21.80;4.72;;;16.90;99.90;;;;;;5033578;28;20045;-66
2023/05/26 11:20:35;;;;;;;19.13;4.68;;;16.90;99.90;;;;;;5037208;28;20103;-65
2023/05/26 11:23:02;;;;;;;21.15;4.25;;;17.00;99.90;;;;;;5066466;28;20500;-64
2023/05/26 11:25:28;;;;;;;21.58;4.22;;;17.00;99.90;;;;;;5074237;28;20064;-64
2023/05/26 11:27:54;;;;;;;16.25;3.65;;;17.00;99.90;;;;;;5069851;28;20156;-66
2023/05/26 11:30:20;;;;;;;22.08;3.92;;;17.00;99.90;;;;;;5047498;28;20065;-64
2023/05/26 11:32:51;;;;;;;17.23;4.70;;;17.00;99.90;;;;;;5050149;28;20131;-65
2023/05/26 11:35:22;;;;;;;20.05;4.47;;;17.00;99.90;;;;;;5049607;28;20040;-64
2023/05/26 11:37:47;;;;;;;21.27;4.07;;;17.10;99.90;;;;;;5040228;28;20045;-67
2023/05/26 11:40:13;;;;;;;16.27;3.83;;;17.00;99.90;;;;;;5077433;28;20033;-66
2023/05/26 11:42:38;;;;;;;22.15;5.00;;;17.10;99.90;;;;;;5047918;28;20048;-65
2023/05/26 11:45:04;;;;;;;23.13;4.65;;;17.20;99.90;;;;;;5042389;28;20037;-65
2023/05/26 11:47:30;;;;;;;17.25;4.53;;;17.10;99.90;;;;;;5040525;28;20466;-65
2023/05/26 11:50:06;;;;;;;18.55;4.22;;;17.20;99.90;;;;;;5041032;28;20041;-65
2023/05/26 11:52:32;;;;;;;19.67;4.25;;;17.20;99.90;;;;;;5045258;28;20091;-67
2023/05/26 11:54:57;;;;;;;21.58;4.63;;;17.30;99.90;;;;;;5045746;28;20048;-65
2023/05/26 11:57:33;;;;;;;22.38;4.18;;;17.30;99.90;;;;;;5042748;28;20049;-65
2023/05/26 11:59:59;;;;;;;21.95;4.30;;;17.30;99.90;;;;;;5045179;28;20111;-64
2023/05/26 12:02:24;;;;;;;17.73;5.00;;;17.30;99.90;;;;;;5044731;28;20127;-69
2023/05/26 12:04:50;;;;;;;17.58;4.10;;;17.40;99.90;;;;;;5040034;28;20190;-64
2023/05/26 12:07:26;;;;;;;20.70;4.38;;;17.30;99.90;;;;;;5041109;28;20029;-65
2023/05/26 12:10:18;;;;;;;18.88;3.97;;;17.40;99.90;;;;;;5033904;28;20403;-66
2023/05/26 12:12:49;;;;;;;19.77;4.90;;;17.30;99.90;;;;;;5072603;28;20049;-65
2023/05/26 12:15:19;;;;;;;21.73;4.75;;;17.30;99.90;;;;;;5036369;28;20238;-66
2023/05/26 12:17:45;;;;;;;20.05;4.63;;;17.30;99.90;;;;;;5042520;28;20445;-65
2023/05/26 12:20:15;;;;;;;22.25;5.10;;;17.30;99.90;;;;;;5042904;28;20131;-65
2023/05/26 12:22:41;;;;;;;17.80;4.50;;;17.40;99.90;;;;;;5044770;28;20043;-66
2023/05/26 12:25:07;;;;;;;18.52;4.93;;;17.30;99.90;;;;;;5043867;28;20040;-64
2023/05/26 12:27:37;;;;;;;20.52;4.50;;;17.30;99.90;;;;;;5040548;28;20045;-66
2023/05/26 12:30:20;;;;;;;19.42;5.10;;;17.20;99.90;;;;;;5036683;28;20417;-66
2023/05/26 12:32:46;;;;;;;19.30;3.97;;;17.20;99.90;;;;;;5076144;28;20393;-66
2023/05/26 12:35:13;;;;;;;23.95;4.40;;;17.10;99.90;;;;;;5047900;28;20068;-65
2023/05/26 12:37:39;;;;;;;19.67;4.28;;;17.10;99.90;;;;;;5046867;28;20421;-63
2023/05/26 12:40:06;;;;;;;18.23;4.35;;;17.10;99.90;;;;;;5040154;28;20084;-64
2023/05/26 12:42:31;;;;;;;20.55;4.30;;;17.10;99.90;;;;;;5038527;28;20099;-64